createdAt,value
2018-12-13T00:00:17.953Z,34.78
2018-12-13T00:02:46.438Z,40.90
2018-12-13T00:05:14.964Z,38.20
2018-12-13T00:07:43.456Z,35.35
2018-12-13T00:10:11.982Z,44.65
2018-12-13T00:12:40.507Z,36.35
2018-12-13T00:15:09.150Z,33.53
2018-12-13T00:17:37.674Z,32.90
2018-12-13T00:20:06.408Z,32.48
2018-12-13T00:22:34.930Z,35.55
2018-12-13T00:25:03.468Z,32.15
2018-12-13T00:27:31.966Z,32.42
2018-12-13T00:30:00.475Z,32.80
2018-12-13T00:32:29.008Z,33.20
2018-12-13T00:34:57.540Z,32.75
2018-12-13T00:37:26.040Z,34.10
2018-12-13T00:39:54.564Z,34.95
2018-12-13T00:42:23.092Z,37.65
2018-12-13T00:44:51.604Z,35.88
2018-12-13T00:47:20.137Z,52.80
2018-12-13T00:49:48.706Z,36.13
2018-12-13T00:52:17.211Z,39.53
2018-12-13T00:54:45.713Z,44.27
2018-12-13T00:57:14.247Z,45.95
2018-12-13T00:59:42.780Z,36.48
2018-12-13T01:02:11.320Z,36.42
2018-12-13T01:04:39.850Z,67.47
2018-12-13T01:07:08.385Z,42.60
2018-12-13T01:09:36.895Z,46.45
2018-12-13T01:12:05.428Z,47.38
2018-12-13T01:14:33.940Z,49.13
2018-12-13T01:17:02.754Z,40.40
2018-12-13T01:19:31.285Z,34.95
2018-12-13T01:21:59.963Z,35.73
2018-12-13T01:24:28.484Z,44.23
2018-12-13T01:26:57.024Z,45.88
2018-12-13T01:29:26.198Z,58.60
2018-12-13T01:31:54.750Z,34.55
2018-12-13T01:34:23.274Z,27.48
2018-12-13T01:36:52.521Z,32.73
2018-12-13T01:39:21.271Z,38.35
2018-12-13T01:41:49.811Z,30.32
2018-12-13T01:44:18.331Z,30.37
2018-12-13T01:46:46.879Z,32.20
2018-12-13T01:49:15.374Z,43.28
2018-12-13T01:51:43.942Z,33.75
2018-12-13T01:54:12.447Z,31.50
2018-12-13T01:56:40.958Z,29.70
2018-12-13T01:59:09.473Z,29.80
2018-12-13T02:01:37.983Z,31.15
2018-12-13T02:04:06.491Z,29.07
2018-12-13T02:06:35.011Z,37.50
2018-12-13T02:09:04.920Z,37.88
2018-12-13T02:11:33.430Z,30.88
2018-12-13T02:14:01.961Z,42.85
2018-12-13T02:16:30.490Z,43.78
2018-12-13T02:18:59.051Z,32.90
2018-12-13T02:21:27.706Z,26.87
2018-12-13T02:23:56.231Z,26.93
2018-12-13T02:26:24.779Z,26.82
2018-12-13T02:28:53.299Z,26.80
2018-12-13T02:31:21.799Z,26.80
2018-12-13T02:33:50.337Z,27.20
2018-12-13T02:36:18.850Z,32.90
2018-12-13T02:38:47.344Z,34.83
2018-12-13T02:41:15.840Z,27.15
2018-12-13T02:43:44.362Z,31.40
2018-12-13T02:46:12.890Z,57.17
2018-12-13T02:48:41.404Z,32.35
2018-12-13T02:51:09.972Z,27.45
2018-12-13T02:53:38.497Z,29.30
2018-12-13T02:56:07.035Z,32.42
2018-12-13T02:58:35.661Z,25.97
2018-12-13T03:01:04.323Z,25.48
2018-12-13T03:03:32.821Z,28.00
2018-12-13T03:06:01.459Z,28.70
2018-12-13T03:08:29.975Z,30.35
2018-12-13T03:10:58.482Z,29.50
2018-12-13T03:13:27.388Z,26.68
2018-12-13T03:15:55.915Z,25.37
2018-12-13T03:18:24.430Z,30.17
2018-12-13T03:20:52.952Z,26.45
2018-12-13T03:23:21.475Z,29.55
2018-12-13T03:25:50.011Z,37.60
2018-12-13T03:28:18.545Z,29.15
2018-12-13T03:30:47.092Z,33.35
2018-12-13T03:33:15.612Z,31.75
2018-12-13T03:35:44.121Z,29.35
2018-12-13T03:38:12.650Z,28.30
2018-12-13T03:40:41.162Z,26.10
2018-12-13T03:43:09.693Z,28.15
2018-12-13T03:45:38.226Z,28.23
2018-12-13T03:48:06.772Z,28.73
2018-12-13T03:50:35.281Z,30.10
2018-12-13T03:53:03.839Z,31.77
2018-12-13T03:55:32.376Z,31.55
2018-12-13T03:58:00.973Z,32.78
2018-12-13T04:00:29.486Z,29.37
2018-12-13T04:02:58.001Z,31.52
2018-12-13T04:05:26.513Z,30.40
2018-12-13T04:07:55.044Z,31.02
2018-12-13T04:10:23.763Z,30.88
2018-12-13T04:12:52.296Z,34.55
2018-12-13T04:15:20.811Z,31.10
2018-12-13T04:17:49.306Z,30.27
2018-12-13T04:20:17.818Z,30.90
2018-12-13T04:22:46.363Z,30.80
2018-12-13T04:25:14.909Z,33.25
2018-12-13T04:27:43.435Z,33.55
2018-12-13T04:30:11.949Z,32.80
2018-12-13T04:32:40.466Z,33.15
2018-12-13T04:35:09.013Z,31.68
2018-12-13T04:37:37.578Z,33.40
2018-12-13T04:40:06.241Z,33.02
2018-12-13T04:42:34.760Z,34.15
2018-12-13T04:45:03.299Z,34.40
2018-12-13T04:47:31.822Z,33.67
2018-12-13T04:50:00.333Z,33.60
2018-12-13T04:52:28.839Z,31.35
2018-12-13T04:54:57.373Z,33.48
2018-12-13T04:57:25.906Z,33.23
2018-12-13T04:59:54.445Z,34.00
2018-12-13T05:02:22.959Z,32.65
2018-12-13T05:04:51.516Z,32.00
2018-12-13T05:07:20.035Z,31.60
2018-12-13T05:09:48.564Z,32.60
2018-12-13T05:12:17.115Z,31.95
2018-12-13T05:14:45.648Z,32.95
2018-12-13T05:17:14.172Z,37.13
2018-12-13T05:19:42.742Z,33.33
2018-12-13T05:22:11.281Z,35.35
2018-12-13T05:24:39.805Z,33.38
2018-12-13T05:27:08.335Z,36.30
2018-12-13T05:29:37.259Z,36.75
2018-12-13T05:32:05.760Z,40.48
2018-12-13T05:34:34.296Z,47.83
2018-12-13T05:37:02.829Z,42.70
2018-12-13T05:39:31.358Z,39.42
2018-12-13T05:41:59.889Z,37.08
2018-12-13T05:44:28.430Z,35.70
2018-12-13T05:46:56.973Z,38.08
2018-12-13T05:49:25.494Z,35.80
2018-12-13T05:51:54.009Z,34.78
2018-12-13T05:54:22.545Z,35.85
2018-12-13T05:56:51.077Z,35.28
2018-12-13T05:59:19.600Z,39.83
2018-12-13T06:01:48.671Z,37.80
2018-12-13T06:04:17.240Z,38.85
2018-12-13T06:06:45.751Z,42.40
2018-12-13T06:09:14.315Z,37.65
2018-12-13T06:11:42.816Z,37.75
2018-12-13T06:14:11.383Z,36.88
2018-12-13T06:16:40.014Z,41.65
2018-12-13T06:19:08.543Z,36.93
2018-12-13T06:21:37.223Z,34.45
2018-12-13T06:24:05.856Z,57.23
2018-12-13T06:26:34.375Z,43.13
2018-12-13T06:29:02.934Z,36.00
2018-12-13T06:31:31.483Z,44.80
2018-12-13T06:34:00.018Z,47.88
2018-12-13T06:36:28.687Z,44.60
2018-12-13T06:38:57.211Z,99.40
2018-12-13T06:41:25.761Z,76.17
2018-12-13T06:43:54.273Z,47.53
2018-12-13T06:46:22.809Z,44.40
2018-12-13T06:48:51.374Z,47.83
2018-12-13T06:51:20.215Z,41.88
2018-12-13T06:53:48.863Z,51.15
2018-12-13T06:56:17.370Z,44.80
2018-12-13T06:58:45.944Z,42.75
2018-12-13T07:01:14.481Z,43.48
2018-12-13T07:03:43.034Z,43.42
2018-12-13T07:06:11.558Z,40.17
2018-12-13T07:08:40.076Z,39.42
2018-12-13T07:11:08.595Z,41.88
2018-12-13T07:13:37.111Z,42.27
2018-12-13T07:16:05.642Z,43.73
2018-12-13T07:18:34.177Z,45.23
2018-12-13T07:21:02.729Z,50.10
2018-12-13T07:23:31.253Z,48.13
2018-12-13T07:25:59.826Z,41.58
2018-12-13T07:28:29.046Z,40.45
2018-12-13T07:30:57.874Z,40.60
2018-12-13T07:33:26.423Z,39.75
2018-12-13T07:35:54.950Z,37.88
2018-12-13T07:38:23.479Z,39.70
2018-12-13T07:40:52.801Z,38.88
2018-12-13T07:43:22.797Z,38.65
2018-12-13T07:45:51.409Z,36.35
2018-12-13T07:48:19.937Z,37.95
2018-12-13T07:50:48.517Z,39.00
2018-12-13T07:53:19.607Z,33.65
2018-12-13T07:55:48.210Z,37.28
2018-12-13T07:58:16.758Z,36.50
2018-12-13T08:00:45.286Z,43.68
2018-12-13T08:03:13.946Z,39.05
2018-12-13T08:05:42.479Z,38.83
2018-12-13T08:08:10.997Z,36.15
2018-12-13T08:10:39.528Z,37.15
2018-12-13T08:13:08.017Z,36.10
2018-12-13T08:15:36.556Z,35.80
2018-12-13T08:18:05.096Z,35.35
2018-12-13T08:20:33.614Z,40.30
2018-12-13T08:23:02.157Z,35.78
2018-12-13T08:25:30.674Z,37.15
2018-12-13T08:27:59.159Z,33.50
2018-12-13T08:30:27.628Z,37.05
2018-12-13T08:32:56.111Z,36.75
2018-12-13T08:35:24.638Z,38.42
2018-12-13T08:37:53.175Z,34.95
2018-12-13T08:40:21.683Z,34.40
2018-12-13T08:42:50.171Z,34.45
2018-12-13T08:45:18.692Z,41.58
2018-12-13T08:47:47.238Z,35.63
2018-12-13T08:50:15.739Z,37.33
2018-12-13T08:52:44.213Z,54.70
2018-12-13T08:55:12.714Z,36.08
2018-12-13T08:57:41.193Z,32.67
2018-12-13T09:00:09.919Z,38.38
2018-12-13T09:02:38.406Z,33.73
2018-12-13T09:05:07.185Z,32.78
2018-12-13T09:07:35.781Z,36.80
2018-12-13T09:10:05.301Z,38.63
2018-12-13T09:12:33.885Z,42.00
2018-12-13T09:15:02.489Z,40.15
2018-12-13T09:17:31.132Z,38.00
2018-12-13T09:19:59.720Z,36.80
2018-12-13T09:22:28.342Z,39.48
2018-12-13T09:24:56.937Z,37.67
2018-12-13T09:27:26.418Z,36.35
2018-12-13T09:29:54.995Z,37.80
2018-12-13T09:32:23.672Z,36.77
2018-12-13T09:34:52.264Z,34.80
2018-12-13T09:37:20.861Z,38.08
2018-12-13T09:39:49.480Z,36.55
2018-12-13T09:42:18.123Z,35.95
2018-12-13T09:44:46.791Z,38.23
2018-12-13T09:47:15.511Z,37.28
2018-12-13T09:49:44.214Z,38.65
2018-12-13T09:52:12.870Z,40.33
2018-12-13T09:54:41.539Z,37.93
2018-12-13T09:57:10.163Z,35.43
2018-12-13T09:59:38.805Z,41.20
2018-12-13T10:02:07.414Z,48.30
2018-12-13T10:04:36.097Z,35.58
2018-12-13T10:07:04.718Z,35.55
2018-12-13T10:09:33.322Z,34.08
2018-12-13T10:12:01.982Z,32.63
2018-12-13T10:14:30.573Z,34.80
2018-12-13T10:16:59.175Z,32.38
2018-12-13T10:19:27.947Z,34.63
2018-12-13T10:21:56.572Z,33.90
2018-12-13T10:24:25.176Z,38.70
2018-12-13T10:26:53.758Z,40.30
2018-12-13T10:29:22.339Z,37.13
2018-12-13T10:31:50.947Z,35.05
2018-12-13T10:34:19.555Z,36.38
2018-12-13T10:36:48.151Z,34.35
2018-12-13T10:39:16.726Z,33.88
2018-12-13T10:41:45.459Z,32.85
2018-12-13T10:44:14.133Z,35.65
2018-12-13T10:46:42.728Z,35.88
2018-12-13T10:49:11.342Z,32.85
2018-12-13T10:51:39.963Z,33.75
2018-12-13T10:54:08.657Z,31.52
2018-12-13T10:56:37.275Z,29.87
2018-12-13T10:59:05.892Z,32.63
2018-12-13T11:01:41.066Z,32.60
2018-12-13T11:04:09.679Z,30.95
2018-12-13T11:06:38.319Z,27.15
2018-12-13T11:09:07.199Z,30.02
2018-12-13T11:11:35.803Z,26.93
2018-12-13T11:14:04.410Z,27.20
2018-12-13T11:16:33.010Z,26.93
2018-12-13T11:19:01.632Z,25.90
2018-12-13T11:21:30.251Z,26.10
2018-12-13T11:23:58.907Z,23.75
2018-12-13T11:26:27.596Z,25.95
2018-12-13T11:29:34.715Z,25.32
2018-12-13T11:32:03.705Z,24.77
2018-12-13T11:34:32.297Z,26.35
2018-12-13T11:37:00.902Z,28.05
2018-12-13T11:39:29.538Z,29.95
2018-12-13T11:41:58.130Z,27.50
2018-12-13T11:44:26.784Z,25.65
2018-12-13T11:46:55.371Z,31.93
2018-12-13T11:49:23.962Z,23.87
2018-12-13T11:51:52.588Z,25.68
2018-12-13T11:54:43.567Z,25.48
2018-12-13T11:57:12.933Z,25.60
2018-12-13T11:59:41.586Z,25.77
2018-12-13T12:02:10.209Z,27.52
2018-12-13T12:04:38.824Z,28.47
2018-12-13T12:07:07.431Z,27.20
2018-12-13T12:09:36.040Z,26.68
2018-12-13T12:12:04.692Z,28.10
2018-12-13T12:14:33.295Z,28.47
2018-12-13T12:17:01.914Z,25.10
2018-12-13T12:19:30.537Z,23.00
2018-12-13T12:21:59.194Z,26.00
2018-12-13T12:24:27.789Z,24.25
2018-12-13T12:26:56.383Z,25.25
2018-12-13T12:29:25.000Z,25.10
2018-12-13T12:31:53.718Z,25.72
2018-12-13T12:34:22.340Z,29.60
2018-12-13T12:36:50.946Z,27.65
2018-12-13T12:39:19.547Z,26.73
2018-12-13T12:41:48.138Z,28.05
2018-12-13T12:44:16.735Z,30.50
2018-12-13T12:46:45.367Z,28.23
2018-12-13T12:49:13.962Z,30.45
2018-12-13T12:51:42.568Z,30.23
2018-12-13T12:54:11.171Z,31.15
2018-12-13T12:56:39.775Z,28.30
2018-12-13T12:59:08.382Z,31.30
2018-12-13T13:01:37.008Z,32.58
2018-12-13T13:04:05.631Z,33.53
2018-12-13T13:06:34.237Z,34.60
2018-12-13T13:09:03.701Z,34.78
2018-12-13T13:11:32.304Z,34.53
2018-12-13T13:14:00.924Z,34.95
2018-12-13T13:16:29.575Z,35.05
2018-12-13T13:18:58.212Z,35.28
2018-12-13T13:21:26.802Z,34.80
2018-12-13T13:23:55.430Z,34.10
2018-12-13T13:26:24.051Z,34.35
2018-12-13T13:28:53.235Z,36.63
2018-12-13T13:31:21.835Z,35.45
2018-12-13T13:33:50.514Z,36.98
2018-12-13T13:36:19.111Z,32.95
2018-12-13T13:38:47.732Z,33.70
2018-12-13T13:41:16.377Z,35.05
2018-12-13T13:43:44.972Z,31.35
2018-12-13T13:46:13.556Z,31.80
2018-12-13T13:48:42.137Z,33.20
2018-12-13T13:51:10.719Z,36.50
2018-12-13T13:53:39.427Z,34.95
2018-12-13T13:56:08.103Z,32.95
2018-12-13T13:58:37.105Z,32.25
2018-12-13T14:01:05.698Z,31.68
2018-12-13T14:03:34.311Z,31.55
2018-12-13T14:06:03.050Z,32.60
2018-12-13T14:08:31.570Z,33.73
2018-12-13T14:11:00.106Z,31.95
2018-12-13T14:13:28.644Z,32.15
2018-12-13T14:15:57.160Z,32.13
2018-12-13T14:18:25.719Z,31.25
2018-12-13T14:20:54.284Z,38.60
2018-12-13T14:23:23.052Z,36.70
2018-12-13T14:25:51.572Z,35.50
2018-12-13T14:28:20.101Z,34.78
2018-12-13T14:30:48.650Z,45.03
2018-12-13T14:33:17.299Z,34.90
2018-12-13T14:35:45.822Z,37.23
2018-12-13T14:38:14.381Z,32.33
2018-12-13T14:40:42.902Z,35.35
2018-12-13T14:43:11.607Z,32.20
2018-12-13T14:45:40.139Z,33.78
2018-12-13T14:48:09.126Z,34.15
2018-12-13T14:50:37.878Z,34.63
2018-12-13T14:53:06.471Z,33.30
2018-12-13T14:55:35.066Z,35.63
2018-12-13T14:58:03.659Z,50.58
2018-12-13T15:00:32.212Z,34.25
2018-12-13T15:03:00.996Z,31.90
2018-12-13T15:05:29.666Z,34.30
2018-12-13T15:07:58.223Z,36.13
2018-12-13T15:10:26.947Z,34.80
2018-12-13T15:12:55.487Z,39.75
2018-12-13T15:15:24.052Z,40.10
2018-12-13T15:17:52.676Z,42.95
2018-12-13T15:20:21.206Z,40.63
2018-12-13T15:22:49.847Z,43.85
2018-12-13T15:25:18.459Z,39.25
2018-12-13T15:27:47.070Z,44.25
2018-12-13T15:30:15.727Z,38.02
2018-12-13T15:32:44.264Z,36.33
2018-12-13T15:35:12.814Z,40.65
2018-12-13T15:37:41.357Z,43.98
2018-12-13T15:40:09.912Z,40.65
2018-12-13T15:42:38.430Z,35.65
2018-12-13T15:45:08.273Z,36.05
2018-12-13T15:47:36.975Z,41.20
2018-12-13T15:50:06.265Z,35.25
2018-12-13T15:52:34.930Z,36.15
2018-12-13T15:55:03.776Z,36.45
2018-12-13T15:57:32.440Z,36.35
2018-12-13T16:00:00.988Z,36.15
2018-12-13T16:02:29.576Z,34.45
2018-12-13T16:04:58.128Z,35.00
2018-12-13T16:07:26.807Z,37.08
2018-12-13T16:09:55.344Z,34.38
2018-12-13T16:12:23.867Z,34.45
2018-12-13T16:14:52.531Z,35.48
2018-12-13T16:17:21.051Z,36.05
2018-12-13T16:19:49.578Z,36.35
2018-12-13T16:22:18.137Z,34.67
2018-12-13T16:24:46.662Z,34.98
2018-12-13T16:27:15.303Z,34.18
2018-12-13T16:29:43.843Z,37.10
2018-12-13T16:32:12.386Z,33.02
2018-12-13T16:34:40.910Z,35.23
2018-12-13T16:37:09.475Z,34.90
2018-12-13T16:39:38.023Z,34.95
2018-12-13T16:42:06.574Z,36.48
2018-12-13T16:44:35.099Z,34.10
2018-12-13T16:47:03.687Z,33.58
2018-12-13T16:49:32.217Z,34.18
2018-12-13T16:52:00.747Z,34.38
2018-12-13T16:54:29.336Z,34.53
2018-12-13T16:56:57.908Z,34.90
2018-12-13T16:59:27.511Z,32.58
2018-12-13T17:01:56.102Z,32.28
2018-12-13T17:04:24.653Z,30.25
2018-12-13T17:06:53.354Z,31.95
2018-12-13T17:09:21.899Z,33.58
2018-12-13T17:11:50.496Z,34.00
2018-12-13T17:14:19.049Z,32.58
2018-12-13T17:16:47.603Z,32.28
2018-12-13T17:19:16.155Z,31.50
2018-12-13T17:21:44.768Z,31.15
2018-12-13T17:24:13.396Z,33.08
2018-12-13T17:26:41.936Z,33.75
2018-12-13T17:29:10.476Z,31.27
2018-12-13T17:31:39.112Z,31.12
2018-12-13T17:34:07.657Z,30.02
2018-12-13T17:36:36.249Z,31.93
2018-12-13T17:39:06.743Z,32.28
2018-12-13T17:41:35.287Z,30.52
2018-12-13T17:44:03.996Z,30.77
2018-12-13T17:46:32.548Z,30.10
2018-12-13T17:49:01.095Z,28.92
2018-12-13T17:51:30.899Z,28.83
2018-12-13T17:53:59.656Z,28.85
2018-12-13T17:56:28.239Z,28.40
2018-12-13T17:58:56.820Z,31.15
2018-12-13T18:01:25.377Z,31.35
2018-12-13T18:03:54.045Z,30.92
2018-12-13T18:06:22.584Z,29.60
2018-12-13T18:08:51.116Z,32.05
2018-12-13T18:11:19.960Z,30.12
2018-12-13T18:13:48.515Z,29.75
2018-12-13T18:16:17.043Z,28.17
2018-12-13T18:18:45.591Z,27.95
2018-12-13T18:21:14.104Z,29.12
2018-12-13T18:23:42.721Z,32.03
2018-12-13T18:26:11.294Z,29.15
2018-12-13T18:28:39.838Z,27.60
2018-12-13T18:31:08.400Z,28.27
2018-12-13T18:33:36.923Z,29.00
2018-12-13T18:36:05.598Z,28.30
2018-12-13T18:38:34.140Z,27.93
2018-12-13T18:41:02.791Z,29.27
2018-12-13T18:43:31.355Z,30.62
2018-12-13T18:45:59.910Z,27.45
2018-12-13T18:48:28.465Z,28.85
2018-12-13T18:50:57.002Z,27.65
2018-12-13T18:53:25.538Z,28.30
2018-12-13T18:55:54.087Z,28.92
2018-12-13T18:58:22.625Z,28.52
2018-12-13T19:00:51.199Z,27.98
2018-12-13T19:03:19.743Z,26.00
2018-12-13T19:05:48.348Z,29.77
2018-12-13T19:08:16.900Z,29.02
2018-12-13T19:10:45.959Z,29.72
2018-12-13T19:13:15.436Z,26.93
2018-12-13T19:15:44.845Z,27.40
2018-12-13T19:18:13.457Z,29.30
2018-12-13T19:20:42.011Z,28.32
2018-12-13T19:23:10.592Z,26.87
2018-12-13T19:25:39.164Z,27.93
2018-12-13T19:28:07.728Z,26.45
2018-12-13T19:30:36.270Z,26.52
2018-12-13T19:33:04.830Z,26.00
2018-12-13T19:35:33.387Z,25.12
2018-12-13T19:38:01.931Z,26.68
2018-12-13T19:40:30.472Z,27.25
2018-12-13T19:42:59.035Z,23.38
2018-12-13T19:45:27.681Z,25.25
2018-12-13T19:47:56.224Z,25.10
2018-12-13T19:50:25.020Z,26.20
2018-12-13T19:52:57.869Z,23.70
2018-12-13T19:55:26.435Z,23.20
2018-12-13T19:57:55.027Z,23.73
2018-12-13T20:00:24.537Z,22.60
2018-12-13T20:02:53.075Z,24.60
2018-12-13T20:05:21.655Z,23.35
2018-12-13T20:07:50.197Z,25.90
2018-12-13T20:10:18.735Z,23.10
2018-12-13T20:12:47.371Z,25.15
2018-12-13T20:15:15.905Z,26.15
2018-12-13T20:17:44.575Z,24.27
2018-12-13T20:20:13.175Z,25.85
2018-12-13T20:22:41.757Z,23.30
2018-12-13T20:25:11.864Z,23.87
2018-12-13T20:27:40.424Z,24.27
2018-12-13T20:30:09.611Z,26.25
2018-12-13T20:32:38.168Z,24.23
2018-12-13T20:35:07.427Z,24.07
2018-12-13T20:37:36.011Z,25.95
2018-12-13T20:40:04.908Z,23.92
2018-12-13T20:42:33.488Z,24.65
2018-12-13T20:45:02.222Z,24.15
2018-12-13T20:47:30.791Z,25.37
2018-12-13T20:49:59.344Z,24.82
2018-12-13T20:52:27.911Z,25.32
2018-12-13T20:54:56.507Z,25.85
2018-12-13T20:57:25.038Z,25.60
2018-12-13T20:59:53.576Z,24.25
2018-12-13T21:02:22.115Z,25.55
2018-12-13T21:04:50.643Z,24.70
2018-12-13T21:07:24.455Z,25.32
2018-12-13T21:09:53.438Z,25.27
2018-12-13T21:12:21.982Z,23.70
2018-12-13T21:14:50.756Z,27.02
2018-12-13T21:17:19.315Z,25.10
2018-12-13T21:19:47.936Z,25.35
2018-12-13T21:22:16.487Z,24.67
2018-12-13T21:24:45.055Z,22.90
2018-12-13T21:27:13.583Z,22.30
2018-12-13T21:29:42.110Z,23.80
2018-12-13T21:32:10.646Z,22.37
2018-12-13T21:34:39.199Z,21.90
2018-12-13T21:37:07.729Z,21.77
2018-12-13T21:39:36.283Z,22.30
2018-12-13T21:42:04.807Z,22.52
2018-12-13T21:44:33.351Z,22.70
2018-12-13T21:47:01.902Z,22.10
2018-12-13T21:49:30.434Z,21.97
2018-12-13T21:51:59.071Z,23.45
2018-12-13T21:54:27.612Z,21.97
2018-12-13T21:56:56.383Z,22.13
2018-12-13T21:59:24.964Z,22.37
2018-12-13T22:01:53.511Z,21.62
2018-12-13T22:04:22.058Z,23.15
2018-12-13T22:06:50.630Z,22.65
2018-12-13T22:09:19.234Z,21.27
2018-12-13T22:11:47.865Z,20.88
2018-12-13T22:14:17.648Z,22.02
2018-12-13T22:16:46.219Z,19.67
2018-12-13T22:19:14.771Z,21.00
2018-12-13T22:21:43.336Z,21.50
2018-12-13T22:24:12.021Z,22.77
2018-12-13T22:26:40.640Z,23.32
2018-12-13T22:29:09.229Z,21.65
2018-12-13T22:31:37.871Z,21.90
2018-12-13T22:34:06.507Z,23.38
2018-12-13T22:36:35.814Z,21.70
2018-12-13T22:39:06.539Z,21.42
2018-12-13T22:41:35.257Z,21.82
2018-12-13T22:44:03.819Z,22.80
2018-12-13T22:46:32.535Z,22.60
2018-12-13T22:49:01.101Z,23.92
2018-12-13T22:51:29.658Z,23.07
2018-12-13T22:53:58.218Z,22.32
2018-12-13T22:56:26.875Z,23.87
2018-12-13T22:58:55.499Z,23.67
2018-12-13T23:01:24.911Z,23.40
2018-12-13T23:03:53.463Z,22.00
2018-12-13T23:06:22.042Z,23.32
2018-12-13T23:08:50.613Z,22.65
2018-12-13T23:11:19.222Z,22.30
2018-12-13T23:13:47.789Z,21.40
2018-12-13T23:16:16.392Z,21.50
2018-12-13T23:18:44.923Z,20.15
2018-12-13T23:21:13.520Z,18.40
2018-12-13T23:23:42.130Z,19.25
2018-12-13T23:26:10.678Z,20.37
2018-12-13T23:28:39.232Z,21.07
2018-12-13T23:31:07.800Z,21.45
2018-12-13T23:33:36.374Z,19.50
2018-12-13T23:36:05.107Z,19.15
2018-12-13T23:38:33.687Z,21.07
2018-12-13T23:41:02.231Z,18.95
2018-12-13T23:43:30.791Z,20.57
2018-12-13T23:45:59.382Z,21.77
2018-12-13T23:48:28.263Z,22.30
2018-12-13T23:50:56.820Z,24.45
2018-12-13T23:53:25.615Z,24.72
2018-12-13T23:55:54.508Z,26.95
2018-12-13T23:58:23.348Z,24.87
